Time;durP1;ratioP1;P1;durP2;ratioP2;P2;SDS_P1;SDS_P2;PMS_P1;PMS_P2;Temp;Humidity;BMP_temperature;BMP_pressure;BME280_temperature;BME280_humidity;BME280_pressure;Samples;Min_cycle;Max_cycle;Signal;HPM_P1;HPM_P2
2021/12/28 05:02:25;;;;;;;;;;;18.60;42.00;;;;;;3894159;22;19922;-86
2021/12/28 05:03:55;;;;;;;;;;;18.60;42.00;;;;;;3893000;22;20264;-86
2021/12/28 05:05:27;;;;;;;;;;;18.60;42.00;;;;;;3893572;22;19911;-86
2021/12/28 05:06:59;;;;;;;;;;;18.60;42.00;;;;;;3893439;22;19919;-86
2021/12/28 05:08:29;;;;;;;;;;;18.60;42.00;;;;;;3893902;22;19919;-87
2021/12/28 05:10:01;;;;;;;;;;;18.60;42.00;;;;;;3893753;22;20048;-86
2021/12/28 05:11:33;;;;;;;;;;;18.60;41.90;;;;;;3893290;22;19915;-86
2021/12/28 05:13:03;;;;;;;;;;;18.60;42.00;;;;;;3894135;22;19977;-86
2021/12/28 05:14:39;;;;;;;;;;;18.60;42.00;;;;;;3893701;22;19935;-86
2021/12/28 05:16:14;;;;;;;;;;;18.60;41.90;;;;;;3892761;22;19923;-86
2021/12/28 05:17:47;;;;;;;;;;;18.60;42.00;;;;;;3893305;22;19919;-86
2021/12/28 05:19:19;;;;;;;;;;;18.60;41.90;;;;;;3893709;22;19989;-87
2021/12/28 05:20:50;;;;;;;;;;;18.60;42.00;;;;;;3893427;22;19915;-87
2021/12/28 05:22:22;;;;;;;;;;;18.60;42.00;;;;;;3893766;22;19966;-85
2021/12/28 05:23:54;;;;;;;;;;;18.60;42.00;;;;;;3893059;22;19939;-87
2021/12/28 05:25:25;;;;;;;;;;;18.60;41.90;;;;;;3893553;22;19915;-86
2021/12/28 05:26:57;;;;;;;;;;;18.60;41.90;;;;;;3893725;22;19919;-86
2021/12/28 05:28:29;;;;;;;;;;;18.60;42.60;;;;;;3893903;22;19945;-86
2021/12/28 05:30:00;;;;;;;;;;;18.60;42.00;;;;;;3893409;22;19937;-85
2021/12/28 05:31:32;;;;;;;;;;;18.60;41.90;;;;;;3892813;22;19919;-87
2021/12/28 05:33:05;;;;;;;;;;;18.60;41.90;;;;;;3893043;22;19915;-86
2021/12/28 05:34:37;;;;;;;;;;;18.60;42.00;;;;;;3894541;22;20451;-86
2021/12/28 05:36:08;;;;;;;;;;;18.60;42.00;;;;;;3893798;22;19915;-86
2021/12/28 05:37:40;;;;;;;;;;;18.60;41.90;;;;;;3893849;22;19915;-86
2021/12/28 05:39:12;;;;;;;;;;;18.60;42.00;;;;;;3894156;22;19916;-86
2021/12/28 05:40:43;;;;;;;;;;;18.60;41.90;;;;;;3877940;22;19988;-86
2021/12/28 05:42:15;;;;;;;;;;;18.60;42.00;;;;;;3894472;22;19942;-86
2021/12/28 05:43:47;;;;;;;;;;;18.60;42.00;;;;;;3894070;22;19919;-85
2021/12/28 05:45:18;;;;;;;;;;;18.60;42.00;;;;;;3892855;22;19915;-86
2021/12/28 05:46:50;;;;;;;;;;;18.60;41.90;;;;;;3894898;22;19961;-86
2021/12/28 05:48:23;;;;;;;;;;;18.60;42.00;;;;;;3892956;22;19965;-86
2021/12/28 05:49:55;;;;;;;;;;;18.60;41.90;;;;;;3894145;22;19969;-86
2021/12/28 05:51:26;;;;;;;;;;;18.60;41.90;;;;;;3894901;22;19919;-86
2021/12/28 05:52:58;;;;;;;;;;;18.60;42.00;;;;;;3893509;22;20396;-87
2021/12/28 05:54:30;;;;;;;;;;;18.60;41.90;;;;;;3894963;22;19991;-87
2021/12/28 05:56:01;;;;;;;;;;;18.60;41.90;;;;;;3893145;22;19965;-86
2021/12/28 05:57:32;;;;;;;;;;;18.60;41.90;;;;;;3895137;22;19993;-86
2021/12/28 05:59:04;;;;;;;;;;;18.60;41.90;;;;;;3894018;22;19915;-86
2021/12/28 06:00:35;;;;;;;;;;;18.60;41.90;;;;;;3892350;22;19999;-86
2021/12/28 06:02:08;;;;;;;;;;;18.70;42.00;;;;;;3894487;22;19919;-86
2021/12/28 06:03:41;;;;;;;;;;;18.60;41.90;;;;;;3893528;22;19938;-86
2021/12/28 06:05:13;;;;;;;;;;;18.60;41.90;;;;;;3894677;22;19939;-86
2021/12/28 06:06:45;;;;;;;;;;;18.60;41.90;;;;;;3894713;22;19919;-86
2021/12/28 06:08:16;;;;;;;;;;;18.60;41.90;;;;;;3894309;22;20391;-85
2021/12/28 06:09:48;;;;;;;;;;;18.60;41.90;;;;;;3893615;22;19941;-86
2021/12/28 06:11:20;;;;;;;;;;;18.60;41.90;;;;;;3894056;22;19965;-87
2021/12/28 06:12:52;;;;;;;;;;;18.70;42.00;;;;;;3894449;22;19919;-86
2021/12/28 06:14:24;;;;;;;;;;;18.70;42.00;;;;;;3893938;22;19994;-86
2021/12/28 06:15:55;;;;;;;;;;;18.70;42.00;;;;;;3892534;22;20296;-86
2021/12/28 06:17:27;;;;;;;;;;;18.60;41.90;;;;;;3895648;22;19969;-86
2021/12/28 06:19:00;;;;;;;;;;;18.60;41.90;;;;;;3894918;22;20337;-86
2021/12/28 06:20:32;;;;;;;;;;;18.70;42.00;;;;;;3895015;22;19915;-86
2021/12/28 06:22:03;;;;;;;;;;;18.70;41.90;;;;;;3894663;22;19915;-86
2021/12/28 06:23:35;;;;;;;;;;;18.60;41.90;;;;;;3895052;22;19922;-87
2021/12/28 06:25:07;;;;;;;;;;;18.60;41.90;;;;;;3894687;22;19911;-86
2021/12/28 06:26:39;;;;;;;;;;;18.70;41.90;;;;;;3894758;22;19934;-86
2021/12/28 06:28:10;;;;;;;;;;;18.70;42.00;;;;;;3895391;22;19960;-86
2021/12/28 06:29:42;;;;;;;;;;;18.70;42.00;;;;;;3894389;22;20334;-86
2021/12/28 06:31:14;;;;;;;;;;;18.70;42.00;;;;;;3894992;22;19915;-86
2021/12/28 06:32:45;;;;;;;;;;;18.60;42.00;;;;;;3895223;22;19969;-86
2021/12/28 06:34:18;;;;;;;;;;;18.70;42.10;;;;;;3894867;22;19973;-86
2021/12/28 06:35:50;;;;;;;;;;;18.70;42.00;;;;;;3895239;22;20326;-86
2021/12/28 06:37:22;;;;;;;;;;;18.60;42.00;;;;;;3895368;22;19941;-86
2021/12/28 06:38:53;;;;;;;;;;;18.70;42.00;;;;;;3895510;22;19915;-86
2021/12/28 06:40:25;;;;;;;;;;;18.70;42.00;;;;;;3895160;22;20292;-87
2021/12/28 06:41:57;;;;;;;;;;;18.70;42.00;;;;;;3895047;22;19965;-86
2021/12/28 06:43:28;;;;;;;;;;;18.60;42.00;;;;;;3895346;22;19915;-86
2021/12/28 06:45:00;;;;;;;;;;;18.70;42.00;;;;;;3894232;22;19921;-86
2021/12/28 06:46:32;;;;;;;;;;;18.70;42.00;;;;;;3894468;22;19986;-85
2021/12/28 06:48:03;;;;;;;;;;;18.70;42.00;;;;;;3896076;22;19919;-86
2021/12/28 06:49:36;;;;;;;;;;;18.70;42.00;;;;;;3894974;22;19918;-86
2021/12/28 06:51:08;;;;;;;;;;;18.70;42.00;;;;;;3894826;22;19972;-86
2021/12/28 06:52:40;;;;;;;;;;;18.70;42.00;;;;;;3894799;22;19960;-86
2021/12/28 06:54:12;;;;;;;;;;;18.70;42.00;;;;;;3895991;22;19921;-86
2021/12/28 06:55:44;;;;;;;;;;;18.70;42.00;;;;;;3894840;22;19915;-86
2021/12/28 06:57:16;;;;;;;;;;;18.70;42.00;;;;;;3895169;22;20241;-86
2021/12/28 06:58:47;;;;;;;;;;;18.70;42.00;;;;;;3896325;22;19919;-86
2021/12/28 07:00:19;;;;;;;;;;;18.70;42.10;;;;;;3893605;22;19921;-86
2021/12/28 07:01:51;;;;;;;;;;;18.70;42.00;;;;;;3895400;22;20334;-87
2021/12/28 07:03:22;;;;;;;;;;;18.70;42.00;;;;;;3894501;22;19968;-86
2021/12/28 07:04:55;;;;;;;;;;;18.70;42.00;;;;;;3895269;22;19915;-85
2021/12/28 07:06:28;;;;;;;;;;;18.70;42.00;;;;;;3896168;22;19937;-86
2021/12/28 07:08:00;;;;;;;;;;;18.70;42.00;;;;;;3894839;22;19915;-86
2021/12/28 07:09:32;;;;;;;;;;;18.70;42.00;;;;;;3895420;22;19919;-86
2021/12/28 07:11:03;;;;;;;;;;;18.70;42.00;;;;;;3893553;22;19919;-85
2021/12/28 07:12:35;;;;;;;;;;;18.70;42.00;;;;;;3894609;22;19915;-86
2021/12/28 07:14:07;;;;;;;;;;;18.70;42.00;;;;;;3895764;22;19915;-85
2021/12/28 07:15:38;;;;;;;;;;;18.70;42.00;;;;;;3892834;22;19919;-86
2021/12/28 07:17:10;;;;;;;;;;;18.70;42.00;;;;;;3895102;22;19965;-87
2021/12/28 07:18:42;;;;;;;;;;;18.70;42.00;;;;;;3894708;22;20337;-86
2021/12/28 07:20:15;;;;;;;;;;;18.70;42.00;;;;;;3895739;22;19985;-86
2021/12/28 07:21:46;;;;;;;;;;;18.70;42.00;;;;;;3896050;22;19927;-85
2021/12/28 07:23:18;;;;;;;;;;;18.70;42.00;;;;;;3894299;22;19915;-87
2021/12/28 07:24:50;;;;;;;;;;;18.70;42.00;;;;;;3895742;22;19990;-86
2021/12/28 07:26:22;;;;;;;;;;;18.70;42.00;;;;;;3894727;22;19926;-86
2021/12/28 07:27:53;;;;;;;;;;;18.70;42.00;;;;;;3894927;22;19968;-85
2021/12/28 07:29:25;;;;;;;;;;;18.70;42.10;;;;;;3895815;22;19915;-85
2021/12/28 07:30:57;;;;;;;;;;;18.70;42.60;;;;;;3892183;22;19922;-86
2021/12/28 07:32:29;;;;;;;;;;;18.70;42.00;;;;;;3895122;22;19919;-86
2021/12/28 07:34:00;;;;;;;;;;;18.70;42.00;;;;;;3894128;22;19915;-85
2021/12/28 07:35:33;;;;;;;;;;;18.70;42.00;;;;;;3894995;22;19918;-86
2021/12/28 07:37:05;;;;;;;;;;;18.70;42.00;;;;;;3895062;22;19964;-85
2021/12/28 07:38:37;;;;;;;;;;;18.70;42.00;;;;;;3895565;22;19926;-85
2021/12/28 07:40:09;;;;;;;;;;;18.70;42.00;;;;;;3894917;22;19915;-85
2021/12/28 07:41:40;;;;;;;;;;;18.70;42.00;;;;;;3894339;22;19915;-87
2021/12/28 07:43:12;;;;;;;;;;;18.70;42.00;;;;;;3894551;22;19915;-85
2021/12/28 07:44:44;;;;;;;;;;;18.70;42.00;;;;;;3894371;22;19919;-85
2021/12/28 07:46:16;;;;;;;;;;;18.70;42.10;;;;;;3894301;22;19919;-86
2021/12/28 07:47:47;;;;;;;;;;;18.70;42.10;;;;;;3895313;22;20310;-86
2021/12/28 07:49:19;;;;;;;;;;;18.70;42.00;;;;;;3894062;22;19918;-86
2021/12/28 07:50:52;;;;;;;;;;;18.70;42.10;;;;;;3895339;22;19969;-85
2021/12/28 07:52:23;;;;;;;;;;;18.70;42.10;;;;;;3894225;22;19915;-86
2021/12/28 07:53:55;;;;;;;;;;;18.70;42.00;;;;;;3895242;22;19945;-87
2021/12/28 07:55:27;;;;;;;;;;;18.70;42.00;;;;;;3895482;22;19915;-85
2021/12/28 07:56:58;;;;;;;;;;;18.70;42.00;;;;;;3893983;22;19964;-84
2021/12/28 07:58:30;;;;;;;;;;;18.70;42.00;;;;;;3896136;22;19919;-87
2021/12/28 08:00:02;;;;;;;;;;;18.70;42.10;;;;;;3893885;22;21342;-87
2021/12/28 08:01:34;;;;;;;;;;;18.80;42.10;;;;;;3894510;22;19915;-86
2021/12/28 08:03:05;;;;;;;;;;;18.70;42.00;;;;;;3895496;22;20276;-86
2021/12/28 08:04:37;;;;;;;;;;;18.70;42.00;;;;;;3894218;22;19981;-85
2021/12/28 08:06:10;;;;;;;;;;;18.70;42.00;;;;;;3895023;22;19951;-86
2021/12/28 08:07:42;;;;;;;;;;;18.70;42.00;;;;;;3893748;22;19915;-86
2021/12/28 08:09:13;;;;;;;;;;;18.70;42.00;;;;;;3895673;22;19919;-85
2021/12/28 08:10:45;;;;;;;;;;;18.80;42.10;;;;;;3894756;22;19915;-83
2021/12/28 08:12:16;;;;;;;;;;;18.70;42.00;;;;;;3894551;22;19980;-87
2021/12/28 08:13:48;;;;;;;;;;;18.80;42.10;;;;;;3894868;22;19919;-85
2021/12/28 08:15:20;;;;;;;;;;;18.80;42.10;;;;;;3892821;22;19915;-85
2021/12/28 08:16:51;;;;;;;;;;;18.70;42.00;;;;;;3896390;22;19976;-85
2021/12/28 08:18:23;;;;;;;;;;;18.80;42.10;;;;;;3894241;22;19915;-86
2021/12/28 08:19:55;;;;;;;;;;;18.80;42.10;;;;;;3894542;22;19915;-87
2021/12/28 08:21:28;;;;;;;;;;;18.70;42.00;;;;;;3896052;22;19968;-85
2021/12/28 08:23:00;;;;;;;;;;;18.80;42.10;;;;;;3894135;22;19915;-86
2021/12/28 08:24:33;;;;;;;;;;;18.80;42.10;;;;;;3894912;22;19915;-87
2021/12/28 08:26:05;;;;;;;;;;;18.70;42.00;;;;;;3893780;22;19935;-86
2021/12/28 08:27:36;;;;;;;;;;;18.70;42.00;;;;;;3895308;22;19961;-85
2021/12/28 08:29:08;;;;;;;;;;;18.80;42.00;;;;;;3895423;22;19927;-84
2021/12/28 08:30:40;;;;;;;;;;;18.70;42.00;;;;;;3891659;22;19915;-86
2021/12/28 08:32:11;;;;;;;;;;;18.70;42.10;;;;;;3895175;22;20234;-86
2021/12/28 08:33:43;;;;;;;;;;;18.80;42.70;;;;;;3893548;22;20257;-86
2021/12/28 08:35:15;;;;;;;;;;;18.70;42.00;;;;;;3894635;22;19922;-85
2021/12/28 08:36:48;;;;;;;;;;;18.80;42.00;;;;;;3895017;22;20266;-85
2021/12/28 08:38:20;;;;;;;;;;;18.80;42.10;;;;;;3894860;22;20341;-86
2021/12/28 08:39:51;;;;;;;;;;;18.80;42.10;;;;;;3894899;22;19954;-86
2021/12/28 08:41:23;;;;;;;;;;;18.80;42.10;;;;;;3893814;22;19915;-85
2021/12/28 08:42:55;;;;;;;;;;;18.70;42.00;;;;;;3894080;22;19960;-86
2021/12/28 08:44:27;;;;;;;;;;;18.80;42.10;;;;;;3893681;22;20223;-86
2021/12/28 08:45:59;;;;;;;;;;;18.80;42.10;;;;;;3892777;22;20548;-84
2021/12/28 08:47:31;;;;;;;;;;;18.80;42.00;;;;;;3893584;22;19922;-86
2021/12/28 08:49:02;;;;;;;;;;;18.80;42.00;;;;;;3893873;22;20351;-87
2021/12/28 08:50:34;;;;;;;;;;;18.80;42.00;;;;;;3892799;22;19915;-85
2021/12/28 08:52:07;;;;;;;;;;;18.80;42.00;;;;;;3893739;22;20334;-86
2021/12/28 08:53:39;;;;;;;;;;;18.70;42.00;;;;;;3893877;22;19915;-86
2021/12/28 08:55:11;;;;;;;;;;;18.80;42.10;;;;;;3893116;22;19919;-86
2021/12/28 08:56:42;;;;;;;;;;;18.80;42.10;;;;;;3894012;22;20314;-86
2021/12/28 08:58:15;;;;;;;;;;;18.80;42.00;;;;;;3894125;22;19964;-85
2021/12/28 08:59:46;;;;;;;;;;;18.80;42.10;;;;;;3892812;22;20352;-86
2021/12/28 09:01:18;;;;;;;;;;;18.80;42.10;;;;;;3893032;22;19919;-86
2021/12/28 09:02:50;;;;;;;;;;;18.80;42.10;;;;;;3893630;22;19915;-86
2021/12/28 09:04:22;;;;;;;;;;;18.80;42.10;;;;;;3893658;22;20330;-86
2021/12/28 09:05:53;;;;;;;;;;;18.80;42.10;;;;;;3893370;22;19923;-85
2021/12/28 09:07:26;;;;;;;;;;;18.80;42.10;;;;;;3893642;22;20037;-86
2021/12/28 09:08:58;;;;;;;;;;;18.80;42.10;;;;;;3894779;22;19919;-85
2021/12/28 09:10:30;;;;;;;;;;;18.80;42.10;;;;;;3893330;22;19919;-86
2021/12/28 09:12:01;;;;;;;;;;;18.80;42.10;;;;;;3894793;22;19938;-86
2021/12/28 09:13:33;;;;;;;;;;;18.80;42.00;;;;;;3893627;22;20293;-86
2021/12/28 09:15:05;;;;;;;;;;;18.80;42.00;;;;;;3892820;22;20135;-86
2021/12/28 09:16:36;;;;;;;;;;;18.80;42.00;;;;;;3893755;22;19919;-86
2021/12/28 09:18:08;;;;;;;;;;;18.80;42.00;;;;;;3893670;22;19921;-86
2021/12/28 09:19:40;;;;;;;;;;;18.80;42.00;;;;;;3894000;22;19919;-86
2021/12/28 09:21:11;;;;;;;;;;;18.80;42.00;;;;;;3893467;22;19964;-85
2021/12/28 09:22:44;;;;;;;;;;;18.80;42.00;;;;;;3893905;22;19922;-85
2021/12/28 09:24:16;;;;;;;;;;;18.80;42.10;;;;;;3894124;22;19915;-85
2021/12/28 09:25:48;;;;;;;;;;;18.80;42.00;;;;;;3893049;22;19923;-86
2021/12/28 09:27:19;;;;;;;;;;;18.80;42.00;;;;;;3893346;22;19922;-86
2021/12/28 09:28:51;;;;;;;;;;;18.80;42.00;;;;;;3893513;22;19973;-86
2021/12/28 09:30:23;;;;;;;;;;;18.80;42.10;;;;;;3892554;22;19915;-85
2021/12/28 09:31:54;;;;;;;;;;;18.80;42.10;;;;;;3893773;22;19968;-85
2021/12/28 09:33:26;;;;;;;;;;;18.80;42.10;;;;;;3893180;22;19964;-85
2021/12/28 09:34:58;;;;;;;;;;;18.80;42.10;;;;;;3893461;22;19919;-86
2021/12/28 09:36:29;;;;;;;;;;;18.80;42.10;;;;;;3894236;22;20333;-86
2021/12/28 09:38:03;;;;;;;;;;;18.80;42.10;;;;;;3893906;22;20322;-86
2021/12/28 09:39:34;;;;;;;;;;;18.80;42.00;;;;;;3893916;22;19916;-86
2021/12/28 09:41:06;;;;;;;;;;;18.80;42.10;;;;;;3894297;22;19919;-87
2021/12/28 09:42:37;;;;;;;;;;;18.80;42.00;;;;;;3894810;22;20334;-85
2021/12/28 09:44:09;;;;;;;;;;;18.80;42.00;;;;;;3895195;22;19961;-85
2021/12/28 09:45:41;;;;;;;;;;;18.80;42.10;;;;;;3897966;22;20300;-85
2021/12/28 09:47:12;;;;;;;;;;;18.80;42.00;;;;;;3901404;22;19915;-84
2021/12/28 09:48:44;;;;;;;;;;;18.80;42.10;;;;;;3898782;22;19915;-85
2021/12/28 09:50:16;;;;;;;;;;;18.80;42.00;;;;;;3899797;22;19919;-85
2021/12/28 09:51:48;;;;;;;;;;;18.80;42.00;;;;;;3900859;22;19915;-86
2021/12/28 09:53:21;;;;;;;;;;;18.80;42.00;;;;;;3900704;22;19919;-85
2021/12/28 09:54:53;;;;;;;;;;;18.80;42.00;;;;;;3901396;22;20225;-85
2021/12/28 09:56:24;;;;;;;;;;;18.80;42.00;;;;;;3900010;22;19916;-85
2021/12/28 09:57:56;;;;;;;;;;;18.80;42.00;;;;;;3900907;22;19981;-85
2021/12/28 09:59:28;;;;;;;;;;;18.80;42.00;;;;;;3900566;22;20093;-84
2021/12/28 10:00:59;;;;;;;;;;;18.90;42.10;;;;;;3897909;22;19985;-85
2021/12/28 10:02:31;;;;;;;;;;;18.80;42.00;;;;;;3901364;22;19915;-84
2021/12/28 10:04:03;;;;;;;;;;;18.80;42.00;;;;;;3899556;22;20395;-86
2021/12/28 10:05:35;;;;;;;;;;;18.90;42.10;;;;;;3901383;22;19919;-85
2021/12/28 10:07:16;;;;;;;;;;;18.90;42.00;;;;;;3896386;22;19960;-87
2021/12/28 10:08:49;;;;;;;;;;;18.80;42.00;;;;;;3895173;22;20349;-87
2021/12/28 10:10:20;;;;;;;;;;;18.80;42.00;;;;;;3895097;22;19937;-87
2021/12/28 10:11:53;;;;;;;;;;;18.80;42.10;;;;;;3896258;22;20310;-87
2021/12/28 10:13:26;;;;;;;;;;;18.80;42.00;;;;;;3894734;22;19915;-86
2021/12/28 10:14:58;;;;;;;;;;;18.80;42.00;;;;;;3894624;22;19922;-87
2021/12/28 10:16:41;;;;;;;;;;;18.90;42.10;;;;;;3894312;22;19915;-87
2021/12/28 10:18:13;;;;;;;;;;;18.90;42.10;;;;;;3895873;22;19919;-87
2021/12/28 10:19:45;;;;;;;;;;;18.90;42.10;;;;;;3894785;22;19990;-87
2021/12/28 10:21:17;;;;;;;;;;;18.80;42.00;;;;;;3895629;22;19915;-87
2021/12/28 10:22:49;;;;;;;;;;;18.90;42.10;;;;;;3895615;22;19919;-87
2021/12/28 10:24:32;;;;;;;;;;;18.90;42.10;;;;;;3894805;22;19919;-87
2021/12/28 10:26:05;;;;;;;;;;;18.90;42.10;;;;;;3894736;22;19915;-87
2021/12/28 10:27:37;;;;;;;;;;;18.90;42.10;;;;;;3894824;22;19945;-86
2021/12/28 10:29:09;;;;;;;;;;;18.90;42.10;;;;;;3895591;22;19968;-87
2021/12/28 10:30:41;;;;;;;;;;;18.90;42.10;;;;;;3893529;22;19922;-87
2021/12/28 10:32:17;;;;;;;;;;;18.80;42.10;;;;;;3894963;22;19915;-87
2021/12/28 10:33:49;;;;;;;;;;;18.90;42.10;;;;;;3894609;22;19980;-87
2021/12/28 10:35:23;;;;;;;;;;;18.90;42.10;;;;;;3893459;22;19915;-87
2021/12/28 10:36:55;;;;;;;;;;;18.90;42.10;;;;;;3896319;22;19987;-87
2021/12/28 10:38:27;;;;;;;;;;;18.90;42.10;;;;;;3895384;22;19915;-86
2021/12/28 10:40:13;;;;;;;;;;;18.90;42.10;;;;;;3894920;22;19951;-87
2021/12/28 10:41:45;;;;;;;;;;;18.90;42.10;;;;;;3895402;22;20268;-87
2021/12/28 10:43:16;;;;;;;;;;;18.80;42.10;;;;;;3894347;22;19969;-87
2021/12/28 10:44:57;;;;;;;;;;;18.90;42.10;;;;;;3898755;22;19915;-85
2021/12/28 10:46:29;;;;;;;;;;;18.90;42.10;;;;;;3898932;22;19954;-84
2021/12/28 10:48:04;;;;;;;;;;;18.90;42.10;;;;;;3900422;22;19965;-85
2021/12/28 10:49:36;;;;;;;;;;;18.90;42.10;;;;;;3900844;22;19990;-84
2021/12/28 10:51:10;;;;;;;;;;;18.90;42.20;;;;;;3897833;22;19980;-85
2021/12/28 10:52:44;;;;;;;;;;;18.90;42.10;;;;;;3900476;22;19947;-84
2021/12/28 10:54:15;;;;;;;;;;;18.90;42.40;;;;;;3899943;22;19911;-85
2021/12/28 10:55:50;;;;;;;;;;;18.90;42.10;;;;;;3899640;22;20293;-85
2021/12/28 10:57:22;;;;;;;;;;;18.90;42.10;;;;;;3899298;22;20297;-85
2021/12/28 10:58:53;;;;;;;;;;;18.90;42.10;;;;;;3899701;22;19915;-85
2021/12/28 11:00:25;;;;;;;;;;;18.90;42.10;;;;;;3897867;22;19923;-85
2021/12/28 11:01:57;;;;;;;;;;;18.90;42.10;;;;;;3899051;22;19931;-84
2021/12/28 17:02:52;;;;;;;;;;;19.20;42.40;;;;;;3896440;22;19925;31
2021/12/28 17:04:24;;;;;;;;;;;19.20;42.40;;;;;;3855788;23;20258;-86
2021/12/28 17:05:56;;;;;;;;;;;19.20;42.40;;;;;;3858195;23;19926;-88
2021/12/28 17:07:27;;;;;;;;;;;19.20;42.30;;;;;;3858503;23;19916;-87
2021/12/28 17:08:59;;;;;;;;;;;19.30;42.40;;;;;;3857904;23;20330;-86
2021/12/28 17:10:31;;;;;;;;;;;19.30;42.40;;;;;;3856213;23;19970;-88
2021/12/28 17:12:02;;;;;;;;;;;19.30;42.40;;;;;;3856192;23;19966;-88
2021/12/28 17:13:34;;;;;;;;;;;19.30;42.40;;;;;;3855779;23;19919;-88
2021/12/28 17:15:06;;;;;;;;;;;19.30;42.40;;;;;;3854598;23;20257;-88
2021/12/28 17:16:38;;;;;;;;;;;19.30;42.40;;;;;;3855575;23;19920;-88
2021/12/28 17:18:11;;;;;;;;;;;19.30;42.40;;;;;;3856023;23;19915;-89
2021/12/28 17:19:43;;;;;;;;;;;19.30;42.40;;;;;;3855766;23;19923;-87
2021/12/28 17:21:15;;;;;;;;;;;19.20;42.40;;;;;;3856268;23;19922;-88
2021/12/28 17:22:46;;;;;;;;;;;19.30;42.40;;;;;;3856699;23;19915;-88
2021/12/28 17:24:18;;;;;;;;;;;19.30;42.40;;;;;;3855391;23;19919;-88
2021/12/28 17:25:50;;;;;;;;;;;19.30;42.30;;;;;;3855015;23;20616;-88
2021/12/28 17:27:22;;;;;;;;;;;19.30;42.40;;;;;;3855902;23;19962;-88
2021/12/28 17:28:53;;;;;;;;;;;19.30;42.40;;;;;;3855551;23;19916;-89
2021/12/28 17:30:25;;;;;;;;;;;19.30;42.40;;;;;;3854265;23;19928;-88
2021/12/28 17:31:57;;;;;;;;;;;19.30;42.40;;;;;;3855929;23;20336;-89
2021/12/28 17:33:31;;;;;;;;;;;19.30;42.40;;;;;;3855651;23;19920;-88
2021/12/28 17:35:02;;;;;;;;;;;19.30;43.00;;;;;;3854579;23;19923;-88
2021/12/28 17:36:34;;;;;;;;;;;19.30;42.40;;;;;;3855837;23;19920;-89
2021/12/28 17:38:06;;;;;;;;;;;19.30;42.40;;;;;;3855876;23;19920;-88
2021/12/28 17:39:37;;;;;;;;;;;19.30;42.40;;;;;;3855642;23;19915;-88
2021/12/28 17:41:09;;;;;;;;;;;19.30;42.40;;;;;;3854917;23;20347;-87
2021/12/28 17:42:41;;;;;;;;;;;19.30;42.40;;;;;;3855247;23;20227;-87
2021/12/28 17:44:12;;;;;;;;;;;19.30;42.40;;;;;;3855748;23;19920;-88
2021/12/28 17:45:44;;;;;;;;;;;19.30;42.40;;;;;;3853797;23;19916;-87
2021/12/28 17:47:16;;;;;;;;;;;19.30;42.40;;;;;;3855706;23;19923;-88
2021/12/28 17:48:49;;;;;;;;;;;19.30;42.40;;;;;;3855739;23;19927;-87
2021/12/28 17:50:21;;;;;;;;;;;19.30;42.40;;;;;;3854897;23;19916;-88
2021/12/28 17:51:52;;;;;;;;;;;19.30;42.40;;;;;;3855684;23;19920;-88
2021/12/28 17:53:24;;;;;;;;;;;19.30;42.40;;;;;;3855239;23;19966;-88
2021/12/28 17:54:56;;;;;;;;;;;19.30;42.40;;;;;;3854840;23;19920;-87
2021/12/28 17:56:27;;;;;;;;;;;19.30;42.40;;;;;;3855515;23;20327;-89
2021/12/28 17:57:59;;;;;;;;;;;19.30;42.40;;;;;;3855645;23;19924;-88
2021/12/28 17:59:31;;;;;;;;;;;19.30;42.30;;;;;;3855841;23;19920;-89
2021/12/28 18:01:02;;;;;;;;;;;19.30;42.30;;;;;;3854131;23;20408;-88
2021/12/28 18:02:51;;;;;;;;;;;19.30;42.40;;;;;;3856178;23;19919;-88
2021/12/28 18:04:24;;;;;;;;;;;19.30;42.40;;;;;;3858978;23;19920;-86
2021/12/28 18:05:55;;;;;;;;;;;19.30;42.40;;;;;;3857539;23;19947;-88
2021/12/28 18:07:27;;;;;;;;;;;19.30;42.40;;;;;;3859086;23;20011;-87
2021/12/28 18:08:59;;;;;;;;;;;19.30;42.40;;;;;;3858909;23;19922;-87
2021/12/28 18:10:32;;;;;;;;;;;19.30;42.40;;;;;;3857816;23;19916;-87
2021/12/28 18:12:04;;;;;;;;;;;19.30;42.40;;;;;;3858643;23;19916;-88
2021/12/28 18:13:36;;;;;;;;;;;19.30;42.40;;;;;;3857705;23;20323;-87
2021/12/28 18:15:08;;;;;;;;;;;19.30;42.40;;;;;;3858209;23;19946;-88
2021/12/28 18:16:40;;;;;;;;;;;19.30;42.40;;;;;;3858415;23;19963;-87
2021/12/28 18:18:11;;;;;;;;;;;19.30;42.40;;;;;;3858702;23;19990;-87
2021/12/28 18:19:45;;;;;;;;;;;19.30;42.40;;;;;;3859261;23;19915;-88
2021/12/28 18:21:17;;;;;;;;;;;19.30;42.40;;;;;;3859187;23;19986;-88
2021/12/28 18:22:48;;;;;;;;;;;19.30;42.40;;;;;;3859273;23;19970;-87
2021/12/28 18:24:20;;;;;;;;;;;19.30;42.40;;;;;;3859044;23;19999;-86
2021/12/28 18:25:52;;;;;;;;;;;19.30;42.40;;;;;;3858428;23;19916;-87
2021/12/28 18:27:23;;;;;;;;;;;19.30;42.40;;;;;;3858741;23;20541;-87
2021/12/28 18:28:58;;;;;;;;;;;19.30;42.40;;;;;;3858560;23;20246;-88
2021/12/28 18:30:29;;;;;;;;;;;19.40;42.40;;;;;;3857338;23;19920;-87
2021/12/28 18:32:01;;;;;;;;;;;19.30;42.40;;;;;;3859589;23;19976;-88
2021/12/28 18:33:33;;;;;;;;;;;19.30;42.30;;;;;;3857687;23;19920;-88
2021/12/28 18:35:06;;;;;;;;;;;19.30;42.30;;;;;;3858571;23;19978;-87
2021/12/28 18:36:38;;;;;;;;;;;19.30;42.40;;;;;;3859915;23;20313;-88
2021/12/28 18:38:10;;;;;;;;;;;19.30;42.40;;;;;;3860004;23;19994;-87
2021/12/28 18:39:42;;;;;;;;;;;19.30;42.40;;;;;;3858571;23;19915;-87
2021/12/28 18:41:14;;;;;;;;;;;19.30;42.40;;;;;;3859140;23;19915;-87
2021/12/28 18:42:45;;;;;;;;;;;19.30;42.40;;;;;;3858338;23;19916;-87
2021/12/28 18:44:17;;;;;;;;;;;19.30;42.40;;;;;;3859171;23;19916;-87
2021/12/28 18:45:49;;;;;;;;;;;19.30;42.40;;;;;;3857334;23;20266;-87
2021/12/28 18:47:20;;;;;;;;;;;19.40;42.40;;;;;;3858741;23;20006;-87
2021/12/28 18:48:52;;;;;;;;;;;19.30;42.40;;;;;;3858915;23;20294;-87
2021/12/28 18:50:26;;;;;;;;;;;19.30;42.40;;;;;;3858173;23;19916;-87
2021/12/28 18:51:58;;;;;;;;;;;19.30;42.40;;;;;;3857695;23;19916;-88
2021/12/28 18:53:31;;;;;;;;;;;19.30;42.40;;;;;;3856712;23;19990;-87
2021/12/28 18:55:04;;;;;;;;;;;19.30;42.40;;;;;;3856534;23;19920;-87
2021/12/28 18:56:35;;;;;;;;;;;19.40;42.40;;;;;;3857663;23;19915;-87
2021/12/28 18:58:07;;;;;;;;;;;19.30;42.40;;;;;;3857020;23;19916;-89
2021/12/28 18:59:39;;;;;;;;;;;19.30;42.40;;;;;;3856787;23;19967;-88
2021/12/28 19:01:11;;;;;;;;;;;19.40;42.40;;;;;;3855068;23;19988;-87
2021/12/28 19:02:42;;;;;;;;;;;19.30;42.40;;;;;;3856666;23;19922;-88
2021/12/28 19:04:14;;;;;;;;;;;19.40;42.40;;;;;;3855429;23;19919;-88
2021/12/28 19:05:47;;;;;;;;;;;19.40;42.50;;;;;;3856133;23;20316;-88
2021/12/28 19:07:19;;;;;;;;;;;19.30;42.40;;;;;;3856893;23;19916;-88
2021/12/28 19:08:51;;;;;;;;;;;19.40;43.00;;;;;;3856517;23;19919;-89
2021/12/28 19:10:23;;;;;;;;;;;19.40;42.40;;;;;;3855844;23;19966;-87
2021/12/28 19:11:55;;;;;;;;;;;19.30;42.40;;;;;;3856663;23;19916;-88
2021/12/28 19:13:27;;;;;;;;;;;19.30;42.40;;;;;;3856212;23;19916;-87
2021/12/28 19:15:00;;;;;;;;;;;19.40;42.40;;;;;;3855315;23;19919;-88
2021/12/28 19:16:31;;;;;;;;;;;19.40;42.50;;;;;;3855609;23;20326;-89
2021/12/28 19:18:05;;;;;;;;;;;19.40;42.40;;;;;;3856426;23;19916;-89
2021/12/28 19:19:37;;;;;;;;;;;19.40;42.50;;;;;;3856276;23;19915;-88
2021/12/28 19:21:11;;;;;;;;;;;19.40;42.50;;;;;;3856380;23;19920;-87
2021/12/28 19:22:43;;;;;;;;;;;19.40;42.40;;;;;;3857178;23;19962;-88
2021/12/28 19:24:15;;;;;;;;;;;19.40;42.50;;;;;;3856743;23;20365;-87
2021/12/28 19:25:46;;;;;;;;;;;19.40;42.40;;;;;;3856160;23;20612;-89
2021/12/28 19:27:18;;;;;;;;;;;19.40;42.50;;;;;;3856239;23;19920;-88
2021/12/28 19:28:51;;;;;;;;;;;19.40;42.50;;;;;;3856765;23;19916;-88
2021/12/28 19:30:22;;;;;;;;;;;19.40;42.40;;;;;;3854834;23;19915;-88
2021/12/28 19:31:55;;;;;;;;;;;19.40;42.50;;;;;;3856632;23;19999;-87
2021/12/28 19:33:28;;;;;;;;;;;19.40;42.50;;;;;;3856310;23;19916;-88
2021/12/28 19:35:00;;;;;;;;;;;19.40;42.50;;;;;;3856214;23;20346;-88
2021/12/28 19:36:33;;;;;;;;;;;19.40;42.40;;;;;;3856729;23;19919;-88
2021/12/28 19:38:04;;;;;;;;;;;19.40;42.50;;;;;;3856356;23;19916;-87
2021/12/28 19:39:36;;;;;;;;;;;19.40;42.40;;;;;;3856637;23;19969;-88
2021/12/28 19:41:08;;;;;;;;;;;19.40;42.50;;;;;;3855105;23;19923;-88
2021/12/28 19:42:40;;;;;;;;;;;19.40;42.50;;;;;;3856410;23;19916;-88
2021/12/28 19:44:11;;;;;;;;;;;19.40;42.40;;;;;;3856303;23;19923;-88
2021/12/28 19:45:49;;;;;;;;;;;19.40;42.50;;;;;;3853998;23;19962;-88
2021/12/28 19:47:23;;;;;;;;;;;19.40;42.50;;;;;;3856787;23;19951;-88
2021/12/28 19:48:55;;;;;;;;;;;19.40;43.10;;;;;;3856628;23;19923;-88
2021/12/28 19:50:26;;;;;;;;;;;19.40;42.80;;;;;;3856044;23;20293;-88
2021/12/28 19:51:59;;;;;;;;;;;19.40;42.50;;;;;;3856369;23;19915;-89
2021/12/28 19:53:31;;;;;;;;;;;19.40;42.50;;;;;;3856397;23;19995;-88
2021/12/28 19:55:03;;;;;;;;;;;19.40;42.50;;;;;;3855819;23;19931;-88
2021/12/28 19:56:34;;;;;;;;;;;19.40;42.50;;;;;;3855870;23;19922;-88